sensor_id;sensor_type;location;lat;lon;timestamp;temperature;humidity
4985;DHT22;2509;49.902;8.600;2022-10-16T00:00:23;15.80;99.90
4985;DHT22;2509;49.902;8.600;2022-10-16T00:03:26;15.80;99.90
4985;DHT22;2509;49.902;8.600;2022-10-16T00:06:28;15.80;99.90
4985;DHT22;2509;49.902;8.600;2022-10-16T00:09:31;15.80;99.90
4985;DHT22;2509;49.902;8.600;2022-10-16T00:12:32;15.80;99.90
4985;DHT22;2509;49.902;8.600;2022-10-16T00:15:35;15.80;99.90
4985;DHT22;2509;49.902;8.600;2022-10-16T00:18:39;15.80;99.90
4985;DHT22;2509;49.902;8.600;2022-10-16T00:21:41;15.80;99.90
4985;DHT22;2509;49.902;8.600;2022-10-16T00:24:43;15.80;99.90
4985;DHT22;2509;49.902;8.600;2022-10-16T00:27:45;15.80;99.90
4985;DHT22;2509;49.902;8.600;2022-10-16T00:30:47;15.80;99.90
4985;DHT22;2509;49.902;8.600;2022-10-16T00:33:50;15.80;99.90
4985;DHT22;2509;49.902;8.600;2022-10-16T00:36:52;15.80;99.90
4985;DHT22;2509;49.902;8.600;2022-10-16T00:39:54;15.80;99.90
4985;DHT22;2509;49.902;8.600;2022-10-16T00:42:56;15.80;99.90
4985;DHT22;2509;49.902;8.600;2022-10-16T00:45:58;15.80;99.90
4985;DHT22;2509;49.902;8.600;2022-10-16T00:49:04;15.80;99.90
4985;DHT22;2509;49.902;8.600;2022-10-16T00:52:07;15.80;99.90
4985;DHT22;2509;49.902;8.600;2022-10-16T00:55:10;15.70;99.90
4985;DHT22;2509;49.902;8.600;2022-10-16T00:58:12;15.70;99.90
4985;DHT22;2509;49.902;8.600;2022-10-16T01:01:13;15.70;99.90
4985;DHT22;2509;49.902;8.600;2022-10-16T01:04:17;15.70;99.90
4985;DHT22;2509;49.902;8.600;2022-10-16T01:07:29;15.70;99.90
4985;DHT22;2509;49.902;8.600;2022-10-16T01:10:36;15.60;99.90
4985;DHT22;2509;49.902;8.600;2022-10-16T01:13:42;15.60;99.90
4985;DHT22;2509;49.902;8.600;2022-10-16T01:16:49;15.60;99.90
4985;DHT22;2509;49.902;8.600;2022-10-16T01:20:05;15.50;99.90
4985;DHT22;2509;49.902;8.600;2022-10-16T01:23:17;15.50;99.90
4985;DHT22;2509;49.902;8.600;2022-10-16T01:26:31;15.50;99.90
4985;DHT22;2509;49.902;8.600;2022-10-16T01:29:41;15.50;99.90
4985;DHT22;2509;49.902;8.600;2022-10-16T01:32:46;15.40;99.90
4985;DHT22;2509;49.902;8.600;2022-10-16T01:35:55;15.40;99.90
4985;DHT22;2509;49.902;8.600;2022-10-16T01:39:01;15.40;99.90
4985;DHT22;2509;49.902;8.600;2022-10-16T01:42:08;15.40;99.90
4985;DHT22;2509;49.902;8.600;2022-10-16T01:45:14;15.40;99.90
4985;DHT22;2509;49.902;8.600;2022-10-16T01:48:20;15.40;99.90
4985;DHT22;2509;49.902;8.600;2022-10-16T01:51:23;15.40;99.90
4985;DHT22;2509;49.902;8.600;2022-10-16T01:54:28;15.40;99.90
4985;DHT22;2509;49.902;8.600;2022-10-16T01:57:34;15.40;99.90
4985;DHT22;2509;49.902;8.600;2022-10-16T02:00:41;15.40;99.90
4985;DHT22;2509;49.902;8.600;2022-10-16T02:03:44;15.40;99.90
4985;DHT22;2509;49.902;8.600;2022-10-16T02:06:47;15.40;99.90
4985;DHT22;2509;49.902;8.600;2022-10-16T02:09:49;15.40;99.90
4985;DHT22;2509;49.902;8.600;2022-10-16T02:12:56;15.50;99.90
4985;DHT22;2509;49.902;8.600;2022-10-16T02:16:01;15.50;99.90
4985;DHT22;2509;49.902;8.600;2022-10-16T02:19:04;15.50;99.90
4985;DHT22;2509;49.902;8.600;2022-10-16T02:22:09;15.50;99.90
4985;DHT22;2509;49.902;8.600;2022-10-16T02:25:15;15.50;99.90
4985;DHT22;2509;49.902;8.600;2022-10-16T02:28:24;15.50;99.90
4985;DHT22;2509;49.902;8.600;2022-10-16T02:31:32;15.60;99.90
4985;DHT22;2509;49.902;8.600;2022-10-16T02:34:36;15.60;99.90
4985;DHT22;2509;49.902;8.600;2022-10-16T02:37:39;15.60;99.90
4985;DHT22;2509;49.902;8.600;2022-10-16T02:40:42;15.60;99.90
4985;DHT22;2509;49.902;8.600;2022-10-16T02:43:44;15.60;99.90
4985;DHT22;2509;49.902;8.600;2022-10-16T02:46:47;15.60;99.90
4985;DHT22;2509;49.902;8.600;2022-10-16T02:49:49;15.70;99.90
4985;DHT22;2509;49.902;8.600;2022-10-16T02:52:51;15.70;99.90
4985;DHT22;2509;49.902;8.600;2022-10-16T02:55:53;15.70;99.90
4985;DHT22;2509;49.902;8.600;2022-10-16T02:58:55;15.70;99.90
4985;DHT22;2509;49.902;8.600;2022-10-16T03:01:58;15.70;99.90
4985;DHT22;2509;49.902;8.600;2022-10-16T03:05:00;15.70;99.90
4985;DHT22;2509;49.902;8.600;2022-10-16T03:08:01;15.70;99.90
4985;DHT22;2509;49.902;8.600;2022-10-16T03:11:03;15.70;99.90
4985;DHT22;2509;49.902;8.600;2022-10-16T03:14:05;15.80;99.90
4985;DHT22;2509;49.902;8.600;2022-10-16T03:17:09;15.80;99.90
4985;DHT22;2509;49.902;8.600;2022-10-16T03:20:11;15.80;99.90
4985;DHT22;2509;49.902;8.600;2022-10-16T03:23:12;15.80;99.90
4985;DHT22;2509;49.902;8.600;2022-10-16T03:26:14;15.80;99.90
4985;DHT22;2509;49.902;8.600;2022-10-16T03:29:16;15.80;99.90
4985;DHT22;2509;49.902;8.600;2022-10-16T03:32:19;15.80;99.90
4985;DHT22;2509;49.902;8.600;2022-10-16T03:35:23;15.80;99.90
4985;DHT22;2509;49.902;8.600;2022-10-16T03:38:25;15.80;99.90
4985;DHT22;2509;49.902;8.600;2022-10-16T03:41:26;15.80;99.90
4985;DHT22;2509;49.902;8.600;2022-10-16T03:44:28;15.80;99.90
4985;DHT22;2509;49.902;8.600;2022-10-16T03:47:31;15.80;99.90
4985;DHT22;2509;49.902;8.600;2022-10-16T03:50:34;15.80;99.90
4985;DHT22;2509;49.902;8.600;2022-10-16T03:53:35;15.80;99.90
4985;DHT22;2509;49.902;8.600;2022-10-16T03:56:38;15.80;99.90
4985;DHT22;2509;49.902;8.600;2022-10-16T03:59:39;15.80;99.90
4985;DHT22;2509;49.902;8.600;2022-10-16T04:02:43;15.80;99.90
4985;DHT22;2509;49.902;8.600;2022-10-16T04:05:45;15.80;99.90
4985;DHT22;2509;49.902;8.600;2022-10-16T04:08:46;15.80;99.90
4985;DHT22;2509;49.902;8.600;2022-10-16T04:11:48;15.80;99.90
4985;DHT22;2509;49.902;8.600;2022-10-16T04:14:50;15.80;99.90
4985;DHT22;2509;49.902;8.600;2022-10-16T04:17:54;15.80;99.90
4985;DHT22;2509;49.902;8.600;2022-10-16T04:20:55;15.80;99.90
4985;DHT22;2509;49.902;8.600;2022-10-16T04:23:57;15.80;99.90
4985;DHT22;2509;49.902;8.600;2022-10-16T04:26:59;15.80;99.90
4985;DHT22;2509;49.902;8.600;2022-10-16T04:30:01;15.80;99.90
4985;DHT22;2509;49.902;8.600;2022-10-16T04:33:04;15.80;99.90
4985;DHT22;2509;49.902;8.600;2022-10-16T04:36:06;15.80;99.90
4985;DHT22;2509;49.902;8.600;2022-10-16T04:39:08;15.80;99.90
4985;DHT22;2509;49.902;8.600;2022-10-16T04:42:10;15.80;99.90
4985;DHT22;2509;49.902;8.600;2022-10-16T04:45:12;15.80;99.90
4985;DHT22;2509;49.902;8.600;2022-10-16T04:48:15;15.80;99.90
4985;DHT22;2509;49.902;8.600;2022-10-16T04:51:17;15.80;99.90
4985;DHT22;2509;49.902;8.600;2022-10-16T04:54:19;15.80;99.90
4985;DHT22;2509;49.902;8.600;2022-10-16T04:57:21;15.80;99.90
4985;DHT22;2509;49.902;8.600;2022-10-16T05:00:23;15.80;99.90
4985;DHT22;2509;49.902;8.600;2022-10-16T05:03:26;15.70;99.90
4985;DHT22;2509;49.902;8.600;2022-10-16T05:06:28;15.70;99.90
4985;DHT22;2509;49.902;8.600;2022-10-16T05:09:30;15.70;99.90
4985;DHT22;2509;49.902;8.600;2022-10-16T05:12:32;15.70;99.90
4985;DHT22;2509;49.902;8.600;2022-10-16T05:15:34;15.70;99.90
4985;DHT22;2509;49.902;8.600;2022-10-16T05:18:37;15.70;99.90
4985;DHT22;2509;49.902;8.600;2022-10-16T05:21:39;15.80;99.90
4985;DHT22;2509;49.902;8.600;2022-10-16T05:24:41;15.80;99.90
4985;DHT22;2509;49.902;8.600;2022-10-16T05:27:42;15.80;99.90
4985;DHT22;2509;49.902;8.600;2022-10-16T05:30:44;15.80;99.90
4985;DHT22;2509;49.902;8.600;2022-10-16T05:33:47;15.70;99.90
4985;DHT22;2509;49.902;8.600;2022-10-16T05:36:49;15.70;99.90
4985;DHT22;2509;49.902;8.600;2022-10-16T05:39:51;15.70;99.90
4985;DHT22;2509;49.902;8.600;2022-10-16T05:42:55;15.70;99.90
4985;DHT22;2509;49.902;8.600;2022-10-16T05:45:58;15.70;99.90
4985;DHT22;2509;49.902;8.600;2022-10-16T05:49:01;15.70;99.90
4985;DHT22;2509;49.902;8.600;2022-10-16T05:52:03;15.70;99.90
4985;DHT22;2509;49.902;8.600;2022-10-16T05:55:06;15.70;99.90
4985;DHT22;2509;49.902;8.600;2022-10-16T05:58:07;15.60;99.90
4985;DHT22;2509;49.902;8.600;2022-10-16T06:01:11;15.60;99.90
4985;DHT22;2509;49.902;8.600;2022-10-16T06:04:15;15.70;99.90
4985;DHT22;2509;49.902;8.600;2022-10-16T06:07:16;15.70;99.90
4985;DHT22;2509;49.902;8.600;2022-10-16T06:10:20;15.60;99.90
4985;DHT22;2509;49.902;8.600;2022-10-16T06:13:22;15.60;99.90
4985;DHT22;2509;49.902;8.600;2022-10-16T06:16:25;15.60;99.90
4985;DHT22;2509;49.902;8.600;2022-10-16T06:19:29;15.60;99.90
4985;DHT22;2509;49.902;8.600;2022-10-16T06:22:31;15.70;99.90
4985;DHT22;2509;49.902;8.600;2022-10-16T06:25:33;15.70;99.90
4985;DHT22;2509;49.902;8.600;2022-10-16T06:28:35;15.70;99.90
4985;DHT22;2509;49.902;8.600;2022-10-16T06:31:37;15.70;99.90
4985;DHT22;2509;49.902;8.600;2022-10-16T06:34:40;15.70;99.90
4985;DHT22;2509;49.902;8.600;2022-10-16T06:37:42;15.70;99.90
4985;DHT22;2509;49.902;8.600;2022-10-16T06:40:44;15.80;99.90
4985;DHT22;2509;49.902;8.600;2022-10-16T06:43:46;15.80;99.90
4985;DHT22;2509;49.902;8.600;2022-10-16T06:46:48;15.80;99.90
4985;DHT22;2509;49.902;8.600;2022-10-16T06:49:51;15.80;99.90
4985;DHT22;2509;49.902;8.600;2022-10-16T06:52:53;15.80;99.90
4985;DHT22;2509;49.902;8.600;2022-10-16T06:55:55;15.80;99.90
4985;DHT22;2509;49.902;8.600;2022-10-16T06:58:58;15.80;99.90
4985;DHT22;2509;49.902;8.600;2022-10-16T07:02:00;15.80;99.90
4985;DHT22;2509;49.902;8.600;2022-10-16T07:05:04;15.80;99.90
4985;DHT22;2509;49.902;8.600;2022-10-16T07:08:06;15.90;99.90
4985;DHT22;2509;49.902;8.600;2022-10-16T07:11:09;15.90;99.90
4985;DHT22;2509;49.902;8.600;2022-10-16T07:14:15;16.00;99.90
4985;DHT22;2509;49.902;8.600;2022-10-16T07:17:17;16.00;99.90
4985;DHT22;2509;49.902;8.600;2022-10-16T07:20:21;16.00;99.90
4985;DHT22;2509;49.902;8.600;2022-10-16T07:23:22;16.00;99.90
4985;DHT22;2509;49.902;8.600;2022-10-16T07:26:25;16.10;99.90
4985;DHT22;2509;49.902;8.600;2022-10-16T07:29:27;16.10;99.90
4985;DHT22;2509;49.902;8.600;2022-10-16T07:32:29;16.20;99.90
4985;DHT22;2509;49.902;8.600;2022-10-16T07:35:32;16.20;99.90
4985;DHT22;2509;49.902;8.600;2022-10-16T07:38:34;16.20;99.90
4985;DHT22;2509;49.902;8.600;2022-10-16T07:41:36;16.30;99.90
4985;DHT22;2509;49.902;8.600;2022-10-16T07:44:38;16.30;99.90
4985;DHT22;2509;49.902;8.600;2022-10-16T07:47:40;16.30;99.90
4985;DHT22;2509;49.902;8.600;2022-10-16T07:50:43;16.30;99.90
4985;DHT22;2509;49.902;8.600;2022-10-16T07:53:45;16.40;99.90
4985;DHT22;2509;49.902;8.600;2022-10-16T07:56:47;16.40;99.90
4985;DHT22;2509;49.902;8.600;2022-10-16T07:59:49;16.50;99.90
4985;DHT22;2509;49.902;8.600;2022-10-16T08:02:51;16.50;99.90
4985;DHT22;2509;49.902;8.600;2022-10-16T08:05:56;16.50;99.90
4985;DHT22;2509;49.902;8.600;2022-10-16T08:08:58;16.60;99.90
4985;DHT22;2509;49.902;8.600;2022-10-16T08:12:00;16.60;99.90
4985;DHT22;2509;49.902;8.600;2022-10-16T08:15:03;16.70;99.90
4985;DHT22;2509;49.902;8.600;2022-10-16T08:18:05;16.70;99.90
4985;DHT22;2509;49.902;8.600;2022-10-16T08:21:13;16.70;99.90
4985;DHT22;2509;49.902;8.600;2022-10-16T08:24:15;16.60;99.90
4985;DHT22;2509;49.902;8.600;2022-10-16T08:27:16;16.60;99.90
4985;DHT22;2509;49.902;8.600;2022-10-16T08:30:20;16.50;99.90
4985;DHT22;2509;49.902;8.600;2022-10-16T08:33:23;16.40;99.90
4985;DHT22;2509;49.902;8.600;2022-10-16T08:36:26;16.40;99.90
4985;DHT22;2509;49.902;8.600;2022-10-16T08:39:28;16.30;99.90
4985;DHT22;2509;49.902;8.600;2022-10-16T08:42:41;16.20;99.90
4985;DHT22;2509;49.902;8.600;2022-10-16T08:45:59;16.10;99.90
4985;DHT22;2509;49.902;8.600;2022-10-16T08:49:09;16.10;99.90
4985;DHT22;2509;49.902;8.600;2022-10-16T08:52:13;16.10;99.90
4985;DHT22;2509;49.902;8.600;2022-10-16T08:55:34;16.10;99.90
4985;DHT22;2509;49.902;8.600;2022-10-16T08:58:38;16.10;99.90
4985;DHT22;2509;49.902;8.600;2022-10-16T09:01:56;16.10;99.90
4985;DHT22;2509;49.902;8.600;2022-10-16T09:05:21;16.10;99.90
4985;DHT22;2509;49.902;8.600;2022-10-16T09:08:31;16.10;99.90
4985;DHT22;2509;49.902;8.600;2022-10-16T09:11:44;16.20;99.90
4985;DHT22;2509;49.902;8.600;2022-10-16T09:14:58;16.20;99.90
4985;DHT22;2509;49.902;8.600;2022-10-16T09:18:05;16.20;99.90
4985;DHT22;2509;49.902;8.600;2022-10-16T09:21:15;16.20;99.90
4985;DHT22;2509;49.902;8.600;2022-10-16T09:24:23;16.30;99.90
4985;DHT22;2509;49.902;8.600;2022-10-16T09:27:26;16.40;99.90
4985;DHT22;2509;49.902;8.600;2022-10-16T09:30:29;16.40;99.90
4985;DHT22;2509;49.902;8.600;2022-10-16T09:33:36;16.40;99.90
4985;DHT22;2509;49.902;8.600;2022-10-16T09:36:41;16.40;99.90
4985;DHT22;2509;49.902;8.600;2022-10-16T09:39:49;16.50;99.90
4985;DHT22;2509;49.902;8.600;2022-10-16T09:42:53;16.60;99.90
4985;DHT22;2509;49.902;8.600;2022-10-16T09:46:00;16.80;99.90
4985;DHT22;2509;49.902;8.600;2022-10-16T09:49:03;16.90;99.90
4985;DHT22;2509;49.902;8.600;2022-10-16T09:52:10;16.90;99.90
4985;DHT22;2509;49.902;8.600;2022-10-16T09:55:16;17.10;99.90
4985;DHT22;2509;49.902;8.600;2022-10-16T09:58:21;17.20;99.90
4985;DHT22;2509;49.902;8.600;2022-10-16T10:01:27;17.30;99.90
4985;DHT22;2509;49.902;8.600;2022-10-16T10:04:39;17.60;99.90
4985;DHT22;2509;49.902;8.600;2022-10-16T10:07:43;17.80;99.90
4985;DHT22;2509;49.902;8.600;2022-10-16T10:10:48;17.90;99.90
4985;DHT22;2509;49.902;8.600;2022-10-16T10:13:50;18.10;99.90
4985;DHT22;2509;49.902;8.600;2022-10-16T10:17:02;18.20;99.90
4985;DHT22;2509;49.902;8.600;2022-10-16T10:20:21;18.30;99.90
4985;DHT22;2509;49.902;8.600;2022-10-16T10:23:26;18.40;99.90
4985;DHT22;2509;49.902;8.600;2022-10-16T10:26:30;18.50;99.90
4985;DHT22;2509;49.902;8.600;2022-10-16T10:29:46;18.80;99.90
4985;DHT22;2509;49.902;8.600;2022-10-16T10:33:05;18.80;99.90
4985;DHT22;2509;49.902;8.600;2022-10-16T10:36:26;18.90;99.90
4985;DHT22;2509;49.902;8.600;2022-10-16T10:39:35;19.10;99.90
4985;DHT22;2509;49.902;8.600;2022-10-16T10:42:44;19.20;99.90
4985;DHT22;2509;49.902;8.600;2022-10-16T10:45:54;19.30;99.90
4985;DHT22;2509;49.902;8.600;2022-10-16T10:49:16;19.30;99.90
4985;DHT22;2509;49.902;8.600;2022-10-16T10:52:39;19.50;99.90
4985;DHT22;2509;49.902;8.600;2022-10-16T10:55:47;19.60;99.90
4985;DHT22;2509;49.902;8.600;2022-10-16T10:59:08;19.70;99.90
4985;DHT22;2509;49.902;8.600;2022-10-16T11:02:18;19.60;99.90
4985;DHT22;2509;49.902;8.600;2022-10-16T11:05:30;19.60;99.90
4985;DHT22;2509;49.902;8.600;2022-10-16T11:08:37;20.20;99.90
4985;DHT22;2509;49.902;8.600;2022-10-16T11:11:43;20.70;99.90
4985;DHT22;2509;49.902;8.600;2022-10-16T11:14:50;21.00;99.90
4985;DHT22;2509;49.902;8.600;2022-10-16T11:17:59;21.20;99.90
4985;DHT22;2509;49.902;8.600;2022-10-16T11:21:06;21.30;99.90
4985;DHT22;2509;49.902;8.600;2022-10-16T11:24:13;21.80;99.90
4985;DHT22;2509;49.902;8.600;2022-10-16T11:27:33;22.50;99.90
4985;DHT22;2509;49.902;8.600;2022-10-16T11:30:49;22.80;99.90
4985;DHT22;2509;49.902;8.600;2022-10-16T11:34:02;22.30;99.90
4985;DHT22;2509;49.902;8.600;2022-10-16T11:37:36;22.40;99.90
4985;DHT22;2509;49.902;8.600;2022-10-16T11:40:52;22.10;99.90
4985;DHT22;2509;49.902;8.600;2022-10-16T11:48:02;22.40;99.90
4985;DHT22;2509;49.902;8.600;2022-10-16T11:51:36;22.60;99.90
4985;DHT22;2509;49.902;8.600;2022-10-16T11:54:58;22.90;99.90
4985;DHT22;2509;49.902;8.600;2022-10-16T11:58:20;23.10;99.90
4985;DHT22;2509;49.902;8.600;2022-10-16T12:01:31;23.20;99.90
4985;DHT22;2509;49.902;8.600;2022-10-16T12:04:40;23.00;99.90
4985;DHT22;2509;49.902;8.600;2022-10-16T12:08:49;23.50;99.90
4985;DHT22;2509;49.902;8.600;2022-10-16T12:12:25;24.10;99.90
4985;DHT22;2509;49.902;8.600;2022-10-16T12:19:33;24.20;99.90
4985;DHT22;2509;49.902;8.600;2022-10-16T12:22:36;24.70;99.90
4985;DHT22;2509;49.902;8.600;2022-10-16T12:25:39;25.30;99.90
4985;DHT22;2509;49.902;8.600;2022-10-16T12:28:46;25.90;99.90
4985;DHT22;2509;49.902;8.600;2022-10-16T12:31:52;26.60;99.90
4985;DHT22;2509;49.902;8.600;2022-10-16T12:34:53;26.60;99.90
4985;DHT22;2509;49.902;8.600;2022-10-16T12:38:06;26.80;99.90
4985;DHT22;2509;49.902;8.600;2022-10-16T12:41:09;26.10;99.90
4985;DHT22;2509;49.902;8.600;2022-10-16T12:44:22;25.40;99.90
4985;DHT22;2509;49.902;8.600;2022-10-16T12:47:36;25.00;99.90
4985;DHT22;2509;49.902;8.600;2022-10-16T12:50:39;24.60;99.90
4985;DHT22;2509;49.902;8.600;2022-10-16T12:53:42;24.10;99.90
4985;DHT22;2509;49.902;8.600;2022-10-16T12:56:51;23.80;99.90
4985;DHT22;2509;49.902;8.600;2022-10-16T13:00:03;23.50;99.90
4985;DHT22;2509;49.902;8.600;2022-10-16T13:03:36;23.20;99.90
4985;DHT22;2509;49.902;8.600;2022-10-16T13:06:47;23.20;99.90
4985;DHT22;2509;49.902;8.600;2022-10-16T13:10:02;23.00;99.90
4985;DHT22;2509;49.902;8.600;2022-10-16T13:13:16;22.70;99.90
4985;DHT22;2509;49.902;8.600;2022-10-16T13:16:28;22.50;99.90
4985;DHT22;2509;49.902;8.600;2022-10-16T13:19:38;22.30;99.90
4985;DHT22;2509;49.902;8.600;2022-10-16T13:22:50;22.20;99.90
4985;DHT22;2509;49.902;8.600;2022-10-16T13:26:05;22.00;99.90
4985;DHT22;2509;49.902;8.600;2022-10-16T13:29:10;21.80;99.90
4985;DHT22;2509;49.902;8.600;2022-10-16T13:32:15;21.50;99.90
4985;DHT22;2509;49.902;8.600;2022-10-16T13:35:22;21.40;99.90
4985;DHT22;2509;49.902;8.600;2022-10-16T13:38:25;21.30;99.90
4985;DHT22;2509;49.902;8.600;2022-10-16T13:41:29;21.20;99.90
4985;DHT22;2509;49.902;8.600;2022-10-16T13:44:36;21.10;99.90
4985;DHT22;2509;49.902;8.600;2022-10-16T13:47:40;21.00;99.90
4985;DHT22;2509;49.902;8.600;2022-10-16T13:50:42;20.80;99.90
4985;DHT22;2509;49.902;8.600;2022-10-16T13:53:45;20.60;99.90
4985;DHT22;2509;49.902;8.600;2022-10-16T13:56:48;20.50;99.90
4985;DHT22;2509;49.902;8.600;2022-10-16T13:59:50;20.50;99.90
4985;DHT22;2509;49.902;8.600;2022-10-16T14:02:57;20.50;99.90
4985;DHT22;2509;49.902;8.600;2022-10-16T14:06:01;20.50;99.90
4985;DHT22;2509;49.902;8.600;2022-10-16T14:09:06;20.50;99.90
4985;DHT22;2509;49.902;8.600;2022-10-16T14:12:11;20.40;99.90
4985;DHT22;2509;49.902;8.600;2022-10-16T14:15:16;20.40;99.90
4985;DHT22;2509;49.902;8.600;2022-10-16T14:18:21;20.40;99.90
4985;DHT22;2509;49.902;8.600;2022-10-16T14:21:24;20.40;99.90
4985;DHT22;2509;49.902;8.600;2022-10-16T14:24:31;20.40;99.90
4985;DHT22;2509;49.902;8.600;2022-10-16T14:27:36;20.40;99.90
4985;DHT22;2509;49.902;8.600;2022-10-16T14:30:49;20.40;99.90
4985;DHT22;2509;49.902;8.600;2022-10-16T14:33:51;20.50;99.90
4985;DHT22;2509;49.902;8.600;2022-10-16T14:36:54;20.50;99.90
4985;DHT22;2509;49.902;8.600;2022-10-16T14:39:57;20.40;99.90
4985;DHT22;2509;49.902;8.600;2022-10-16T14:43:00;20.40;99.90
4985;DHT22;2509;49.902;8.600;2022-10-16T14:46:12;20.40;99.90
4985;DHT22;2509;49.902;8.600;2022-10-16T14:49:19;20.30;99.90
4985;DHT22;2509;49.902;8.600;2022-10-16T14:52:22;20.30;99.90
4985;DHT22;2509;49.902;8.600;2022-10-16T14:55:30;20.20;99.90
4985;DHT22;2509;49.902;8.600;2022-10-16T14:58:33;20.20;99.90
4985;DHT22;2509;49.902;8.600;2022-10-16T15:01:39;20.20;99.90
4985;DHT22;2509;49.902;8.600;2022-10-16T15:04:53;20.20;99.90
4985;DHT22;2509;49.902;8.600;2022-10-16T15:07:58;20.20;99.90
4985;DHT22;2509;49.902;8.600;2022-10-16T15:11:15;20.40;99.90
4985;DHT22;2509;49.902;8.600;2022-10-16T15:14:21;20.60;99.90
4985;DHT22;2509;49.902;8.600;2022-10-16T15:17:32;20.70;99.90
4985;DHT22;2509;49.902;8.600;2022-10-16T15:20:51;20.70;99.90
4985;DHT22;2509;49.902;8.600;2022-10-16T15:24:01;20.70;99.90
4985;DHT22;2509;49.902;8.600;2022-10-16T15:27:03;20.70;99.90
4985;DHT22;2509;49.902;8.600;2022-10-16T15:30:10;20.70;99.90
4985;DHT22;2509;49.902;8.600;2022-10-16T15:33:18;20.50;99.90
4985;DHT22;2509;49.902;8.600;2022-10-16T15:36:35;20.50;99.90
4985;DHT22;2509;49.902;8.600;2022-10-16T15:39:56;20.40;99.90
4985;DHT22;2509;49.902;8.600;2022-10-16T15:43:04;20.30;99.90
4985;DHT22;2509;49.902;8.600;2022-10-16T15:46:12;20.30;99.90
4985;DHT22;2509;49.902;8.600;2022-10-16T15:49:15;20.30;99.90
4985;DHT22;2509;49.902;8.600;2022-10-16T15:56:21;20.20;99.90
4985;DHT22;2509;49.902;8.600;2022-10-16T15:59:39;20.10;99.90
4985;DHT22;2509;49.902;8.600;2022-10-16T16:02:50;20.00;99.90
4985;DHT22;2509;49.902;8.600;2022-10-16T16:09:34;19.90;99.90
4985;DHT22;2509;49.902;8.600;2022-10-16T16:12:41;19.80;99.90
4985;DHT22;2509;49.902;8.600;2022-10-16T16:15:44;19.70;99.90
4985;DHT22;2509;49.902;8.600;2022-10-16T16:23:14;19.60;99.90
4985;DHT22;2509;49.902;8.600;2022-10-16T16:34:34;19.30;99.90
4985;DHT22;2509;49.902;8.600;2022-10-16T16:37:43;19.20;99.90
4985;DHT22;2509;49.902;8.600;2022-10-16T16:41:00;19.20;99.90
4985;DHT22;2509;49.902;8.600;2022-10-16T17:00:14;18.90;99.90
4985;DHT22;2509;49.902;8.600;2022-10-16T17:03:15;18.80;99.90
4985;DHT22;2509;49.902;8.600;2022-10-16T17:06:18;18.80;99.90
4985;DHT22;2509;49.902;8.600;2022-10-16T17:09:20;18.70;99.90
4985;DHT22;2509;49.902;8.600;2022-10-16T17:12:22;18.70;99.90
4985;DHT22;2509;49.902;8.600;2022-10-16T17:15:25;18.70;99.90
4985;DHT22;2509;49.902;8.600;2022-10-16T17:18:27;18.60;99.90
4985;DHT22;2509;49.902;8.600;2022-10-16T17:21:29;18.60;99.90
4985;DHT22;2509;49.902;8.600;2022-10-16T17:24:32;18.60;99.90
4985;DHT22;2509;49.902;8.600;2022-10-16T17:27:34;18.50;99.90
4985;DHT22;2509;49.902;8.600;2022-10-16T17:30:37;18.50;99.90
4985;DHT22;2509;49.902;8.600;2022-10-16T17:33:40;18.40;99.90
4985;DHT22;2509;49.902;8.600;2022-10-16T17:36:42;18.40;99.90
4985;DHT22;2509;49.902;8.600;2022-10-16T17:39:49;18.30;99.90
4985;DHT22;2509;49.902;8.600;2022-10-16T17:42:51;18.20;99.90
4985;DHT22;2509;49.902;8.600;2022-10-16T17:45:55;18.20;99.90
4985;DHT22;2509;49.902;8.600;2022-10-16T17:48:57;18.10;99.90
4985;DHT22;2509;49.902;8.600;2022-10-16T17:51:59;18.00;99.90
4985;DHT22;2509;49.902;8.600;2022-10-16T17:55:02;18.00;99.90
4985;DHT22;2509;49.902;8.600;2022-10-16T17:58:04;17.90;99.90
4985;DHT22;2509;49.902;8.600;2022-10-16T18:01:12;17.80;99.90
4985;DHT22;2509;49.902;8.600;2022-10-16T18:04:16;17.80;99.90
4985;DHT22;2509;49.902;8.600;2022-10-16T18:07:18;17.70;99.90
4985;DHT22;2509;49.902;8.600;2022-10-16T18:10:20;17.70;99.90
4985;DHT22;2509;49.902;8.600;2022-10-16T18:13:22;17.60;99.90
4985;DHT22;2509;49.902;8.600;2022-10-16T18:16:26;17.50;99.90
4985;DHT22;2509;49.902;8.600;2022-10-16T18:19:28;17.40;99.90
4985;DHT22;2509;49.902;8.600;2022-10-16T18:22:31;17.30;99.90
4985;DHT22;2509;49.902;8.600;2022-10-16T18:25:35;17.20;99.90
4985;DHT22;2509;49.902;8.600;2022-10-16T18:28:37;17.20;99.90
4985;DHT22;2509;49.902;8.600;2022-10-16T18:31:40;17.10;99.90
4985;DHT22;2509;49.902;8.600;2022-10-16T18:34:43;17.10;99.90
4985;DHT22;2509;49.902;8.600;2022-10-16T18:37:44;17.00;99.90
4985;DHT22;2509;49.902;8.600;2022-10-16T18:40:46;16.90;99.90
4985;DHT22;2509;49.902;8.600;2022-10-16T18:43:48;16.90;99.90
4985;DHT22;2509;49.902;8.600;2022-10-16T18:46:51;16.80;99.90
4985;DHT22;2509;49.902;8.600;2022-10-16T18:49:56;16.70;99.90
4985;DHT22;2509;49.902;8.600;2022-10-16T18:52:58;16.70;99.90
4985;DHT22;2509;49.902;8.600;2022-10-16T18:55:59;16.70;99.90
4985;DHT22;2509;49.902;8.600;2022-10-16T18:59:03;16.70;99.90
4985;DHT22;2509;49.902;8.600;2022-10-16T19:02:08;16.70;99.90
4985;DHT22;2509;49.902;8.600;2022-10-16T19:05:09;16.70;99.90
4985;DHT22;2509;49.902;8.600;2022-10-16T19:08:11;16.70;99.90
4985;DHT22;2509;49.902;8.600;2022-10-16T19:11:15;16.70;99.90
4985;DHT22;2509;49.902;8.600;2022-10-16T19:14:17;16.60;99.90
4985;DHT22;2509;49.902;8.600;2022-10-16T19:17:21;16.60;99.90
4985;DHT22;2509;49.902;8.600;2022-10-16T19:20:23;16.60;99.90
4985;DHT22;2509;49.902;8.600;2022-10-16T19:23:25;16.60;99.90
4985;DHT22;2509;49.902;8.600;2022-10-16T19:26:28;16.50;99.90
4985;DHT22;2509;49.902;8.600;2022-10-16T19:29:31;16.50;99.90
4985;DHT22;2509;49.902;8.600;2022-10-16T19:32:34;16.50;99.90
4985;DHT22;2509;49.902;8.600;2022-10-16T19:35:36;16.40;99.90
4985;DHT22;2509;49.902;8.600;2022-10-16T19:38:38;16.40;99.90
4985;DHT22;2509;49.902;8.600;2022-10-16T19:41:41;16.40;99.90
4985;DHT22;2509;49.902;8.600;2022-10-16T19:44:43;16.40;99.90
4985;DHT22;2509;49.902;8.600;2022-10-16T19:47:46;16.30;99.90
4985;DHT22;2509;49.902;8.600;2022-10-16T19:50:48;16.30;99.90
4985;DHT22;2509;49.902;8.600;2022-10-16T19:53:53;16.30;99.90
4985;DHT22;2509;49.902;8.600;2022-10-16T19:56:55;16.20;99.90
4985;DHT22;2509;49.902;8.600;2022-10-16T19:59:59;16.20;99.90
4985;DHT22;2509;49.902;8.600;2022-10-16T20:03:02;16.20;99.90
4985;DHT22;2509;49.902;8.600;2022-10-16T20:06:04;16.20;99.90
4985;DHT22;2509;49.902;8.600;2022-10-16T20:09:06;16.20;99.90
4985;DHT22;2509;49.902;8.600;2022-10-16T20:12:08;16.20;99.90
4985;DHT22;2509;49.902;8.600;2022-10-16T20:15:10;16.20;99.90
4985;DHT22;2509;49.902;8.600;2022-10-16T20:18:14;16.20;99.90
4985;DHT22;2509;49.902;8.600;2022-10-16T20:21:17;16.10;99.90
4985;DHT22;2509;49.902;8.600;2022-10-16T20:24:20;16.10;99.90
4985;DHT22;2509;49.902;8.600;2022-10-16T20:27:21;16.10;99.90
4985;DHT22;2509;49.902;8.600;2022-10-16T20:30:24;16.00;99.90
4985;DHT22;2509;49.902;8.600;2022-10-16T20:33:27;16.00;99.90
4985;DHT22;2509;49.902;8.600;2022-10-16T20:36:29;16.00;99.90
4985;DHT22;2509;49.902;8.600;2022-10-16T20:39:32;15.90;99.90
4985;DHT22;2509;49.902;8.600;2022-10-16T20:42:34;15.80;99.90
4985;DHT22;2509;49.902;8.600;2022-10-16T20:45:36;15.80;99.90
4985;DHT22;2509;49.902;8.600;2022-10-16T20:48:40;15.70;99.90
4985;DHT22;2509;49.902;8.600;2022-10-16T20:51:44;15.70;99.90
4985;DHT22;2509;49.902;8.600;2022-10-16T20:54:49;15.60;99.90